Lykes Provider — VQIV9 — position and weather

sailwx.info

Track history (hours):
 
Tides and Currents Weather Stations Pressure Air Temp Water Temp Dewpoint Dewpoint Depression Visibility Wind Speed Wind Dir Waves Ship Positions

Lykes Provider

Last reported at 2014-Oct-31 04:33 UTC. Time now 2014-Oct-31 04:56 UTC.
Position N 29°46' E 122°29'.

Length 260 m; draft 10.8 m.

Type: Ship (hazmat cat C). MMSI: 235645000.

Date/timePositionNaut miles runAvg speedWind from/ knotsBaromVisibWave heightAir tempDewpointWater temp
2014-Oct-31 04:33N 29°46' E 122°29'0 0.0
2014-Oct-31 03:33N 29°46' E 122°29'0 0.1
2014-Oct-31 02:27N 29°46' E 122°29'0 0.1
2014-Oct-31 01:30N 29°45' E 122°29'7 7.5
2014-Oct-31 00:34N 29°46' E 122°37'1110.6
2014-Oct-30 23:32N 29°50' E 122°49'104 7.4
2014-Oct-30 09:28N 31°18' E 121°45'9 9.9
2014-Oct-30 08:33N 31°22' E 121°36'0 0.1
2014-Oct-30 07:27N 31°22' E 121°35'0 0.1
2014-Oct-30 06:27N 31°22' E 121°36'0 0.0
2014-Oct-30 05:20N 31°22' E 121°36'0 0.0
2014-Oct-30 04:32N 31°22' E 121°36'0 0.0
2014-Oct-30 01:32N 31°22' E 121°36'0 0.0
2014-Oct-30 00:26N 31°22' E 121°36'0 0.0
2014-Oct-29 23:08N 31°22' E 121°35'0 0.0
2014-Oct-29 22:32N 31°22' E 121°35'0 0.0
2014-Oct-29 21:19N 31°22' E 121°36'0 0.0
2014-Oct-29 20:25N 31°22' E 121°36'0 0.0
2014-Oct-29 19:31N 31°22' E 121°36'0 0.1
2014-Oct-29 17:33N 31°22' E 121°36'4 3.8
2014-Oct-29 16:33N 31°21' E 121°40'  
Track history (hours):
 
Tides and Currents Weather Stations Pressure Air Temp Water Temp Dewpoint Dewpoint Depression Visibility Wind Speed Wind Dir Waves Ship Positions

Lykes Provider

Last reported at 2014-Oct-31 04:33 UTC. Time now 2014-Oct-31 04:56 UTC.
Position N 29°46' E 122°29'.

Length 260 m; draft 10.8 m.

Type: Ship (hazmat cat C). MMSI: 235645000.

Date/timePositionNaut miles runAvg speedWind from/ knotsBaromVisibWave heightAir tempDewpointWater temp
2014-Oct-31 04:33N 29°46' E 122°29'0 0.0
2014-Oct-31 03:33N 29°46' E 122°29'0 0.1
2014-Oct-31 02:27N 29°46' E 122°29'0 0.1
2014-Oct-31 01:30N 29°45' E 122°29'7 7.5
2014-Oct-31 00:34N 29°46' E 122°37'1110.6
2014-Oct-30 23:32N 29°50' E 122°49'104 7.4
2014-Oct-30 09:28N 31°18' E 121°45'9 9.9
2014-Oct-30 08:33N 31°22' E 121°36'0 0.1
2014-Oct-30 07:27N 31°22' E 121°35'0 0.1
2014-Oct-30 06:27N 31°22' E 121°36'0 0.0
2014-Oct-30 05:20N 31°22' E 121°36'0 0.0
2014-Oct-30 04:32N 31°22' E 121°36'0 0.0
2014-Oct-30 01:32N 31°22' E 121°36'0 0.0
2014-Oct-30 00:26N 31°22' E 121°36'0 0.0
2014-Oct-29 23:08N 31°22' E 121°35'0 0.0
2014-Oct-29 22:32N 31°22' E 121°35'0 0.0
2014-Oct-29 21:19N 31°22' E 121°36'0 0.0
2014-Oct-29 20:25N 31°22' E 121°36'0 0.0
2014-Oct-29 19:31N 31°22' E 121°36'0 0.1
2014-Oct-29 17:33N 31°22' E 121°36'4 3.8
2014-Oct-29 16:33N 31°21' E 121°40'  

Dump ship's entire track history